createdAt,value
2017-11-13T00:00:06.992Z,61.84
2017-11-13T00:00:38.642Z,62.10
2017-11-13T00:01:10.287Z,62.15
2017-11-13T00:01:41.936Z,62.13
2017-11-13T00:02:13.582Z,62.09
2017-11-13T00:02:45.235Z,62.10
2017-11-13T00:03:16.888Z,62.23
2017-11-13T00:03:48.591Z,62.23
2017-11-13T00:04:20.246Z,62.22
2017-11-13T00:04:51.894Z,62.33
2017-11-13T00:05:23.542Z,62.35
2017-11-13T00:05:55.194Z,62.33
2017-11-13T00:06:26.842Z,62.30
2017-11-13T00:06:58.495Z,62.23
2017-11-13T00:07:30.283Z,62.21
2017-11-13T00:08:01.935Z,62.22
2017-11-13T00:08:33.578Z,62.13
2017-11-13T00:09:05.270Z,62.25
2017-11-13T00:09:37.156Z,62.36
2017-11-13T00:10:08.807Z,62.39
2017-11-13T00:10:40.458Z,62.38
2017-11-13T00:11:12.102Z,62.43
2017-11-13T00:11:43.750Z,62.49
2017-11-13T00:12:15.406Z,62.50
2017-11-13T00:12:47.058Z,62.47
2017-11-13T00:13:18.957Z,62.49
2017-11-13T00:13:50.611Z,62.54
2017-11-13T00:14:22.303Z,62.55
2017-11-13T00:14:54.190Z,62.49
2017-11-13T00:15:25.842Z,62.56
2017-11-13T00:15:57.498Z,62.49
2017-11-13T00:16:29.150Z,62.55
2017-11-13T00:17:00.802Z,62.82
2017-11-13T00:17:32.627Z,62.60
2017-11-13T00:18:04.278Z,62.78
2017-11-13T00:18:35.923Z,62.77
2017-11-13T00:19:07.574Z,62.82
2017-11-13T00:19:39.496Z,62.73
2017-11-13T00:20:11.142Z,62.63
2017-11-13T00:20:42.799Z,62.72
2017-11-13T00:21:14.451Z,62.71
2017-11-13T00:21:46.102Z,62.65
2017-11-13T00:22:17.753Z,62.85
2017-11-13T00:22:49.431Z,62.82
2017-11-13T00:23:21.082Z,62.73
2017-11-13T00:23:52.916Z,62.72
2017-11-13T00:24:24.618Z,62.74
2017-11-13T00:24:56.452Z,62.65
2017-11-13T00:25:28.398Z,62.61
2017-11-13T00:26:00.046Z,62.60
2017-11-13T00:26:31.698Z,62.63
2017-11-13T00:27:03.347Z,62.51
2017-11-13T00:27:35.133Z,62.46
2017-11-13T00:28:06.783Z,62.27
2017-11-13T00:28:38.750Z,62.11
2017-11-13T00:29:10.399Z,62.03
2017-11-13T00:29:43.098Z,62.05
2017-11-13T00:30:16.408Z,61.95
2017-11-13T00:30:49.479Z,62.06
2017-11-13T00:31:21.131Z,62.01
2017-11-13T00:31:52.790Z,61.89
2017-11-13T00:32:24.715Z,61.83
2017-11-13T00:32:56.466Z,61.78
2017-11-13T00:33:28.127Z,61.91
2017-11-13T00:33:59.777Z,62.00
2017-11-13T00:34:31.702Z,62.23
2017-11-13T00:35:03.354Z,61.95
2017-11-13T00:35:34.998Z,61.97
2017-11-13T00:36:06.650Z,62.19
2017-11-13T00:36:38.298Z,62.19
2017-11-13T00:37:09.947Z,62.11
2017-11-13T00:37:41.598Z,62.12
2017-11-13T00:38:13.250Z,62.11
2017-11-13T00:38:44.898Z,62.15
2017-11-13T00:39:16.550Z,61.89
2017-11-13T00:39:48.239Z,61.81
2017-11-13T00:40:19.891Z,61.76
2017-11-13T00:40:51.709Z,61.92
2017-11-13T00:41:23.358Z,62.05
2017-11-13T00:41:55.006Z,61.94
2017-11-13T00:42:26.663Z,61.82
2017-11-13T00:42:58.325Z,61.80
2017-11-13T00:43:29.979Z,61.75
2017-11-13T00:44:01.640Z,61.72
2017-11-13T00:44:33.509Z,61.71
2017-11-13T00:45:05.162Z,61.61
2017-11-13T00:45:36.823Z,61.69
2017-11-13T00:46:08.694Z,61.76
2017-11-13T00:46:40.342Z,61.56
2017-11-13T00:47:12.042Z,61.60
2017-11-13T00:47:43.694Z,61.65
2017-11-13T00:48:15.338Z,61.60
2017-11-13T00:48:46.983Z,61.63
2017-11-13T00:49:18.632Z,61.60
2017-11-13T00:49:50.274Z,61.48
2017-11-13T00:50:21.927Z,61.45
2017-11-13T00:50:53.582Z,61.53
2017-11-13T00:51:25.428Z,61.53
2017-11-13T00:51:57.083Z,61.61
2017-11-13T00:52:28.753Z,61.55
2017-11-13T00:53:00.407Z,61.43
2017-11-13T00:53:32.062Z,61.74
2017-11-13T00:54:03.706Z,61.36
2017-11-13T00:54:35.351Z,61.40
2017-11-13T00:55:06.994Z,61.33
2017-11-13T00:55:38.642Z,61.32
2017-11-13T00:56:10.291Z,61.41
2017-11-13T00:56:41.944Z,61.48
2017-11-13T00:57:13.835Z,61.24
2017-11-13T00:57:45.487Z,61.33
2017-11-13T00:58:17.138Z,61.39
2017-11-13T00:58:48.787Z,61.22
2017-11-13T00:59:20.683Z,61.33
2017-11-13T00:59:52.351Z,61.36
2017-11-13T01:00:24.458Z,61.34
2017-11-13T01:00:56.110Z,61.43
2017-11-13T01:01:27.762Z,61.32
2017-11-13T01:01:59.545Z,61.37
2017-11-13T01:02:31.202Z,61.26
2017-11-13T01:03:02.851Z,61.31
2017-11-13T01:03:35.070Z,61.39
2017-11-13T01:04:07.022Z,61.35
2017-11-13T01:04:38.868Z,61.55
2017-11-13T01:05:10.563Z,61.38
2017-11-13T01:05:42.257Z,61.26
2017-11-13T01:06:13.906Z,61.15
2017-11-13T01:06:45.555Z,61.21
2017-11-13T01:07:17.207Z,61.35
2017-11-13T01:07:49.238Z,61.47
2017-11-13T01:08:20.887Z,61.36
2017-11-13T01:08:52.535Z,61.32
2017-11-13T01:09:24.186Z,61.27
2017-11-13T01:09:56.008Z,61.32
2017-11-13T01:10:27.667Z,61.33
2017-11-13T01:10:59.311Z,61.37
2017-11-13T01:11:30.962Z,61.41
2017-11-13T01:12:02.606Z,61.39
2017-11-13T01:12:34.255Z,61.44
2017-11-13T01:13:05.906Z,61.61
2017-11-13T01:13:37.555Z,61.59
2017-11-13T01:14:09.206Z,61.54
2017-11-13T01:14:41.086Z,61.59
2017-11-13T01:15:12.774Z,61.61
2017-11-13T01:15:44.658Z,61.63
2017-11-13T01:16:18.164Z,61.40
2017-11-13T01:16:49.847Z,61.65
2017-11-13T01:17:21.506Z,61.40
2017-11-13T01:17:53.158Z,61.43
2017-11-13T01:18:25.043Z,61.60
2017-11-13T01:18:56.694Z,61.44
2017-11-13T01:19:28.344Z,61.68
2017-11-13T01:20:00.007Z,61.67
2017-11-13T01:20:31.658Z,61.95
2017-11-13T01:21:03.367Z,61.69
2017-11-13T01:21:35.019Z,61.66
2017-11-13T01:22:06.663Z,61.69
2017-11-13T01:22:38.308Z,61.79
2017-11-13T01:23:09.955Z,61.91
2017-11-13T01:23:41.602Z,61.72
2017-11-13T01:24:13.410Z,61.69
2017-11-13T01:24:46.279Z,61.99
2017-11-13T01:25:18.391Z,61.80
2017-11-13T01:25:50.580Z,61.91
2017-11-13T01:26:22.267Z,61.89
2017-11-13T01:26:53.911Z,61.88
2017-11-13T01:27:25.720Z,61.87
2017-11-13T01:27:57.370Z,61.92
2017-11-13T01:28:29.795Z,61.87
2017-11-13T01:29:01.704Z,61.85
2017-11-13T01:29:33.516Z,61.91
2017-11-13T01:30:05.465Z,62.16
2017-11-13T01:30:37.114Z,62.31
2017-11-13T01:31:09.083Z,62.26
2017-11-13T01:31:40.737Z,62.13
2017-11-13T01:32:12.386Z,62.34
2017-11-13T01:32:44.046Z,62.64
2017-11-13T01:33:15.739Z,62.56
2017-11-13T01:33:47.395Z,62.44
2017-11-13T01:34:19.042Z,62.51
2017-11-13T01:34:51.107Z,62.60
2017-11-13T01:35:23.421Z,62.47
2017-11-13T01:35:55.070Z,62.43
2017-11-13T01:36:28.097Z,62.61
2017-11-13T01:37:00.492Z,62.58
2017-11-13T01:37:32.669Z,62.71
2017-11-13T01:38:04.566Z,62.61
2017-11-13T01:38:36.263Z,62.70
2017-11-13T01:39:07.907Z,62.67
2017-11-13T01:39:39.574Z,62.68
2017-11-13T01:40:11.226Z,62.77
2017-11-13T01:40:42.879Z,62.62
2017-11-13T01:41:14.569Z,62.77
2017-11-13T01:41:46.226Z,62.68
2017-11-13T01:42:17.874Z,62.83
2017-11-13T01:42:49.753Z,62.82
2017-11-13T01:43:21.425Z,62.88
2017-11-13T01:43:53.273Z,62.94
2017-11-13T01:44:24.927Z,62.88
2017-11-13T01:44:56.575Z,62.90
2017-11-13T01:45:28.218Z,63.04
2017-11-13T01:45:59.866Z,63.00
2017-11-13T01:46:31.519Z,63.07
2017-11-13T01:47:03.179Z,63.18
2017-11-13T01:47:34.897Z,63.19
2017-11-13T01:48:06.587Z,63.07
2017-11-13T01:48:38.764Z,63.23
2017-11-13T01:49:10.423Z,63.29
2017-11-13T01:49:42.071Z,63.39
2017-11-13T01:50:13.730Z,63.43
2017-11-13T01:50:45.378Z,63.60
2017-11-13T01:51:17.027Z,63.39
2017-11-13T01:51:48.689Z,63.71
2017-11-13T01:52:20.374Z,63.59
2017-11-13T01:52:52.027Z,63.65
2017-11-13T01:53:23.678Z,63.46
2017-11-13T01:53:55.325Z,63.45
2017-11-13T01:54:26.979Z,63.50
2017-11-13T01:54:58.631Z,63.66
2017-11-13T01:55:30.278Z,63.52
2017-11-13T01:56:01.968Z,63.63
2017-11-13T01:56:33.835Z,63.46
2017-11-13T01:57:06.882Z,63.58
2017-11-13T01:57:38.884Z,63.74
2017-11-13T01:58:10.535Z,63.80
2017-11-13T01:58:42.381Z,63.71
2017-11-13T01:59:14.064Z,63.67
2017-11-13T01:59:45.715Z,63.71
2017-11-13T02:00:18.265Z,64.14
2017-11-13T02:00:49.946Z,64.04
2017-11-13T02:01:21.599Z,63.88
2017-11-13T02:01:53.255Z,63.68
2017-11-13T02:02:25.095Z,63.82
2017-11-13T02:02:57.095Z,63.95
2017-11-13T02:03:28.754Z,63.79
2017-11-13T02:04:00.838Z,64.01
2017-11-13T02:04:32.491Z,64.18
2017-11-13T02:05:04.277Z,63.75
2017-11-13T02:05:35.934Z,63.87
2017-11-13T02:06:07.756Z,63.92
2017-11-13T02:06:39.507Z,63.84
2017-11-13T02:07:11.167Z,63.65
2017-11-13T02:07:42.819Z,63.89
2017-11-13T02:08:14.510Z,63.87
2017-11-13T02:08:46.352Z,63.73
2017-11-13T02:09:18.025Z,64.00
2017-11-13T02:09:49.675Z,64.10
2017-11-13T02:10:21.323Z,63.95
2017-11-13T02:10:53.422Z,63.97
2017-11-13T02:11:25.208Z,64.03
2017-11-13T02:11:56.861Z,63.98
2017-11-13T02:12:28.509Z,63.84
2017-11-13T02:13:00.155Z,64.49
2017-11-13T02:13:31.843Z,64.09
2017-11-13T02:14:03.506Z,64.54
2017-11-13T02:14:35.365Z,64.16
2017-11-13T02:15:07.209Z,64.70
2017-11-13T02:15:38.959Z,64.38
2017-11-13T02:16:10.618Z,64.13
2017-11-13T02:16:42.277Z,64.30
2017-11-13T02:17:13.940Z,64.21
2017-11-13T02:17:45.835Z,64.14
2017-11-13T02:18:17.482Z,64.25
2017-11-13T02:18:49.422Z,64.27
2017-11-13T02:19:21.319Z,64.05
2017-11-13T02:19:52.983Z,64.15
2017-11-13T02:20:24.675Z,64.29
2017-11-13T02:20:56.318Z,64.04
2017-11-13T02:21:27.962Z,64.39
2017-11-13T02:21:59.609Z,64.17
2017-11-13T02:22:31.263Z,64.26
2017-11-13T02:23:02.919Z,64.22
2017-11-13T02:23:34.703Z,64.31
2017-11-13T02:24:06.455Z,64.37
2017-11-13T02:24:38.106Z,64.19
2017-11-13T02:25:09.802Z,64.37
2017-11-13T02:25:41.503Z,64.11
2017-11-13T02:26:13.439Z,64.23
2017-11-13T02:26:45.138Z,64.38
2017-11-13T02:27:16.921Z,64.24
2017-11-13T02:27:48.571Z,64.40
2017-11-13T02:28:20.218Z,64.40
2017-11-13T02:28:51.862Z,64.23
2017-11-13T02:29:23.511Z,64.30
2017-11-13T02:29:55.163Z,64.28
2017-11-13T02:30:26.818Z,64.26
2017-11-13T02:30:58.475Z,64.37
2017-11-13T02:31:30.364Z,64.42
2017-11-13T02:32:02.054Z,64.75
2017-11-13T02:32:33.847Z,64.25
2017-11-13T02:33:05.503Z,64.50
2017-11-13T02:33:37.157Z,64.51
2017-11-13T02:34:08.811Z,64.30
2017-11-13T02:34:40.468Z,64.22
2017-11-13T02:35:12.123Z,64.34
2017-11-13T02:35:43.806Z,64.39
2017-11-13T02:36:15.459Z,64.45
2017-11-13T02:36:47.151Z,64.59
2017-11-13T02:37:18.803Z,65.30
2017-11-13T02:37:50.681Z,64.48
2017-11-13T02:38:22.335Z,64.21
2017-11-13T02:38:53.984Z,64.15
2017-11-13T02:39:25.630Z,64.29
2017-11-13T02:39:57.280Z,64.29
2017-11-13T02:40:28.926Z,64.03
2017-11-13T02:41:01.259Z,63.56
2017-11-13T02:41:32.911Z,63.58
2017-11-13T02:42:04.738Z,63.59
2017-11-13T02:42:36.602Z,63.78
2017-11-13T02:43:08.251Z,63.85
2017-11-13T02:43:39.902Z,63.81
2017-11-13T02:44:11.550Z,63.82
2017-11-13T02:44:43.203Z,63.71
2017-11-13T02:45:14.857Z,63.81
2017-11-13T02:45:46.574Z,63.69
2017-11-13T02:46:18.219Z,63.62
2017-11-13T02:46:49.866Z,63.86
2017-11-13T02:47:21.771Z,63.86
2017-11-13T02:47:53.422Z,63.79
2017-11-13T02:48:25.334Z,63.77
2017-11-13T02:48:57.005Z,63.61
2017-11-13T02:49:28.654Z,63.66
2017-11-13T02:50:00.310Z,63.85
2017-11-13T02:50:32.179Z,63.80
2017-11-13T02:51:03.831Z,63.83
2017-11-13T02:51:35.478Z,63.74
2017-11-13T02:52:07.169Z,63.77
2017-11-13T02:52:38.862Z,63.99
2017-11-13T02:53:10.696Z,63.78
2017-11-13T02:53:42.353Z,63.85
2017-11-13T02:54:14.011Z,63.76
2017-11-13T02:54:45.676Z,63.87
2017-11-13T02:55:17.515Z,64.05
2017-11-13T02:55:49.743Z,63.95
2017-11-13T02:56:21.527Z,64.11
2017-11-13T02:56:53.475Z,63.79
2017-11-13T02:57:25.133Z,64.20
2017-11-13T02:57:56.811Z,64.04
2017-11-13T02:58:28.474Z,63.80
2017-11-13T02:59:00.304Z,64.04
2017-11-13T02:59:31.952Z,63.90
2017-11-13T03:00:03.603Z,64.04
2017-11-13T03:00:35.274Z,64.02
2017-11-13T03:01:06.934Z,63.95
2017-11-13T03:01:38.582Z,64.21
2017-11-13T03:02:10.226Z,63.95
2017-11-13T03:02:42.275Z,64.06
2017-11-13T03:03:14.164Z,64.11
2017-11-13T03:03:46.049Z,64.02
2017-11-13T03:04:17.741Z,63.99
2017-11-13T03:04:49.640Z,64.11
2017-11-13T03:05:21.298Z,64.23
2017-11-13T03:05:52.955Z,64.47
2017-11-13T03:06:24.782Z,64.23
2017-11-13T03:06:56.438Z,64.27
2017-11-13T03:07:28.090Z,64.17
2017-11-13T03:07:59.739Z,64.18
2017-11-13T03:08:31.625Z,64.31
2017-11-13T03:09:03.390Z,64.15
2017-11-13T03:09:35.054Z,64.29
2017-11-13T03:10:06.699Z,64.36
2017-11-13T03:10:39.233Z,64.29
2017-11-13T03:11:10.886Z,64.37
2017-11-13T03:11:42.539Z,64.29
2017-11-13T03:12:14.191Z,64.24
2017-11-13T03:12:45.834Z,64.36
2017-11-13T03:13:17.483Z,64.19
2017-11-13T03:13:49.397Z,64.10
2017-11-13T03:14:21.046Z,64.27
2017-11-13T03:14:52.694Z,64.15
2017-11-13T03:15:24.890Z,64.01
2017-11-13T03:15:56.578Z,64.25
2017-11-13T03:16:28.231Z,64.05
2017-11-13T03:16:59.878Z,64.15
2017-11-13T03:17:31.522Z,64.26
2017-11-13T03:18:03.171Z,64.27
2017-11-13T03:18:34.818Z,64.05
2017-11-13T03:19:06.462Z,64.16
2017-11-13T03:19:38.118Z,64.05
2017-11-13T03:20:09.772Z,63.99
2017-11-13T03:20:41.663Z,64.16
2017-11-13T03:21:13.323Z,64.22
2017-11-13T03:21:44.984Z,64.10
2017-11-13T03:22:16.634Z,64.13
2017-11-13T03:22:48.287Z,63.98
2017-11-13T03:23:20.206Z,63.99
2017-11-13T03:23:51.851Z,63.95
2017-11-13T03:24:23.768Z,63.96
2017-11-13T03:24:55.471Z,63.92
2017-11-13T03:25:27.664Z,63.88
2017-11-13T03:25:59.548Z,63.98
2017-11-13T03:26:31.194Z,63.89
2017-11-13T03:27:02.842Z,63.79
2017-11-13T03:27:34.490Z,63.67
2017-11-13T03:28:06.190Z,63.69
2017-11-13T03:28:37.843Z,63.87
2017-11-13T03:29:09.491Z,63.92
2017-11-13T03:29:41.145Z,63.77
2017-11-13T03:30:12.792Z,63.98
2017-11-13T03:30:44.444Z,63.83
2017-11-13T03:31:16.152Z,63.83
2017-11-13T03:31:47.799Z,63.90
2017-11-13T03:32:19.442Z,63.72
2017-11-13T03:32:51.094Z,63.74
2017-11-13T03:33:22.743Z,63.81
2017-11-13T03:33:54.394Z,63.85
2017-11-13T03:34:26.047Z,63.99
2017-11-13T03:34:57.695Z,63.90
2017-11-13T03:35:29.346Z,63.89
2017-11-13T03:36:01.122Z,63.88
2017-11-13T03:36:33.070Z,63.84
2017-11-13T03:37:04.967Z,64.00
2017-11-13T03:37:36.616Z,63.90
2017-11-13T03:38:08.304Z,63.81
2017-11-13T03:38:39.955Z,63.75
2017-11-13T03:39:11.602Z,63.61
2017-11-13T03:39:43.251Z,63.74
2017-11-13T03:40:14.900Z,63.69
2017-11-13T03:40:46.731Z,63.55
2017-11-13T03:41:18.382Z,63.67
2017-11-13T03:41:50.027Z,63.58
2017-11-13T03:42:22.338Z,63.58
2017-11-13T03:42:54.398Z,63.54
2017-11-13T03:43:26.826Z,63.42
2017-11-13T03:43:58.514Z,63.55
2017-11-13T03:44:30.162Z,63.35
2017-11-13T03:45:01.811Z,63.22
2017-11-13T03:45:33.455Z,63.30
2017-11-13T03:46:05.106Z,63.32
2017-11-13T03:46:36.774Z,63.29
2017-11-13T03:47:09.596Z,63.27
2017-11-13T03:47:41.286Z,63.31
2017-11-13T03:48:12.934Z,63.28
2017-11-13T03:48:44.936Z,63.24
2017-11-13T03:49:16.587Z,63.16
2017-11-13T03:49:48.239Z,63.14
2017-11-13T03:50:19.890Z,63.17
2017-11-13T03:50:51.535Z,63.22
2017-11-13T03:51:23.178Z,63.18
2017-11-13T03:51:54.826Z,63.22
2017-11-13T03:52:26.628Z,63.12
2017-11-13T03:52:58.279Z,63.05
2017-11-13T03:53:29.934Z,63.06
2017-11-13T03:54:01.591Z,62.96
2017-11-13T03:54:33.235Z,62.95
2017-11-13T03:55:04.883Z,63.01
2017-11-13T03:55:36.534Z,62.98
2017-11-13T03:56:08.432Z,63.09
2017-11-13T03:56:40.083Z,62.97
2017-11-13T03:57:12.074Z,62.95
2017-11-13T03:57:43.854Z,62.86
2017-11-13T03:58:15.510Z,62.99
2017-11-13T03:58:47.165Z,62.93
2017-11-13T03:59:18.810Z,62.95
2017-11-13T03:59:50.458Z,62.96
2017-11-13T04:00:22.115Z,63.05
2017-11-13T04:00:53.762Z,63.03
2017-11-13T04:01:25.415Z,63.04
2017-11-13T04:01:57.062Z,62.96
2017-11-13T04:02:28.745Z,62.99
2017-11-13T04:03:00.394Z,62.93
2017-11-13T04:03:32.047Z,63.04
2017-11-13T04:04:03.694Z,62.95
2017-11-13T04:04:35.337Z,63.40
2017-11-13T04:05:06.979Z,63.18
2017-11-13T04:05:38.628Z,63.10
2017-11-13T04:06:10.273Z,63.30
2017-11-13T04:06:41.918Z,63.13
2017-11-13T04:07:13.829Z,63.22
2017-11-13T04:07:45.479Z,63.33
2017-11-13T04:08:17.143Z,63.32
2017-11-13T04:08:48.795Z,63.27
2017-11-13T04:09:20.446Z,63.24
2017-11-13T04:09:52.098Z,63.32
2017-11-13T04:10:23.988Z,63.32
2017-11-13T04:10:55.646Z,63.45
2017-11-13T04:11:27.295Z,63.53
2017-11-13T04:11:58.939Z,63.41
2017-11-13T04:12:30.994Z,63.37
2017-11-13T04:13:03.667Z,63.48
2017-11-13T04:13:35.311Z,63.42
2017-11-13T04:14:06.967Z,63.41
2017-11-13T04:14:38.623Z,63.35
2017-11-13T04:15:10.275Z,63.39
2017-11-13T04:15:41.943Z,63.35
2017-11-13T04:16:13.594Z,63.42
2017-11-13T04:16:45.242Z,63.44
2017-11-13T04:17:16.891Z,63.48
2017-11-13T04:17:48.583Z,63.56
2017-11-13T04:18:20.747Z,63.57
2017-11-13T04:18:52.409Z,63.55
2017-11-13T04:19:24.062Z,63.50
2017-11-13T04:19:56.000Z,63.61
2017-11-13T04:20:27.651Z,63.68
2017-11-13T04:20:59.304Z,63.67
2017-11-13T04:21:30.958Z,63.61
2017-11-13T04:22:02.874Z,63.63
2017-11-13T04:22:34.526Z,63.60
2017-11-13T04:23:06.187Z,63.78
2017-11-13T04:23:37.847Z,63.83
2017-11-13T04:24:10.953Z,63.88
2017-11-13T04:24:43.236Z,63.81
2017-11-13T04:25:14.897Z,64.13
2017-11-13T04:25:46.543Z,64.00
2017-11-13T04:26:18.190Z,64.00
2017-11-13T04:26:49.834Z,64.19
2017-11-13T04:27:22.361Z,64.05
2017-11-13T04:27:54.242Z,64.18
2017-11-13T04:28:25.887Z,64.25
2017-11-13T04:28:57.539Z,64.30
2017-11-13T04:29:29.244Z,64.26
2017-11-13T04:30:00.942Z,64.30
2017-11-13T04:30:32.586Z,64.41
2017-11-13T04:31:04.474Z,64.34
2017-11-13T04:31:36.127Z,64.31
2017-11-13T04:32:07.770Z,64.54
2017-11-13T04:32:39.414Z,64.38
2017-11-13T04:33:11.066Z,64.44
2017-11-13T04:33:42.707Z,64.83
2017-11-13T04:34:14.352Z,64.59
2017-11-13T04:34:46.002Z,64.77
2017-11-13T04:35:17.807Z,64.75
2017-11-13T04:35:49.454Z,64.86
2017-11-13T04:36:21.201Z,64.85
2017-11-13T04:36:52.851Z,64.90
2017-11-13T04:37:24.503Z,64.93
2017-11-13T04:37:56.150Z,64.96
2017-11-13T04:38:27.796Z,64.97
2017-11-13T04:38:59.479Z,65.04
2017-11-13T04:39:31.358Z,65.00
2017-11-13T04:40:03.308Z,64.91
2017-11-13T04:40:34.963Z,64.88
2017-11-13T04:41:06.607Z,64.82
2017-11-13T04:41:38.250Z,64.83
2017-11-13T04:42:09.894Z,64.88
2017-11-13T04:42:41.779Z,64.84
2017-11-13T04:43:13.467Z,64.69
2017-11-13T04:43:45.344Z,64.73
2017-11-13T04:44:16.996Z,64.93
2017-11-13T04:44:48.642Z,64.87
2017-11-13T04:45:20.291Z,64.65
2017-11-13T04:45:51.943Z,64.55
2017-11-13T04:46:23.622Z,64.50
2017-11-13T04:46:55.394Z,64.50
2017-11-13T04:47:27.051Z,64.62
2017-11-13T04:47:58.699Z,64.46
2017-11-13T04:48:30.356Z,64.61
2017-11-13T04:49:02.061Z,64.57
2017-11-13T04:49:33.710Z,64.46
2017-11-13T04:50:05.360Z,64.44
2017-11-13T04:50:37.002Z,64.50
2017-11-13T04:51:08.663Z,64.46
2017-11-13T04:51:40.327Z,64.47
2017-11-13T04:52:12.221Z,64.58
2017-11-13T04:52:43.867Z,64.49
2017-11-13T04:53:15.527Z,64.53
2017-11-13T04:53:47.181Z,64.67
2017-11-13T04:54:19.295Z,64.55
2017-11-13T04:54:51.124Z,64.62
2017-11-13T04:55:22.776Z,64.70
2017-11-13T04:55:54.426Z,64.49
2017-11-13T04:56:26.069Z,64.45
2017-11-13T04:56:57.714Z,64.51
2017-11-13T04:57:29.359Z,64.43
2017-11-13T04:58:01.011Z,64.46
2017-11-13T04:58:32.662Z,64.58
2017-11-13T04:59:04.313Z,64.58
2017-11-13T04:59:38.132Z,64.56
2017-11-13T05:00:10.001Z,64.58
2017-11-13T05:00:41.970Z,64.68
2017-11-13T05:01:13.897Z,64.51
2017-11-13T05:01:45.791Z,64.66
2017-11-13T05:02:17.796Z,64.59
2017-11-13T05:02:50.003Z,64.50
2017-11-13T05:03:21.867Z,64.50
2017-11-13T05:03:53.645Z,64.37
2017-11-13T05:04:26.190Z,64.45
2017-11-13T05:04:57.835Z,64.56
2017-11-13T05:05:29.495Z,64.44
2017-11-13T05:06:01.143Z,64.65
2017-11-13T05:06:32.790Z,64.46
2017-11-13T05:07:04.435Z,64.42
2017-11-13T05:07:36.325Z,64.34
2017-11-13T05:08:08.009Z,64.32
2017-11-13T05:08:39.658Z,64.19
2017-11-13T05:09:11.311Z,64.29
2017-11-13T05:09:42.954Z,64.09
2017-11-13T05:10:14.605Z,64.03
2017-11-13T05:10:46.250Z,64.04
2017-11-13T05:11:17.899Z,64.15
2017-11-13T05:11:49.547Z,64.08
2017-11-13T05:12:21.203Z,64.04
2017-11-13T05:12:53.086Z,64.08
2017-11-13T05:13:24.734Z,63.95
2017-11-13T05:13:56.423Z,63.84
2017-11-13T05:14:28.074Z,63.81
2017-11-13T05:14:59.730Z,63.72
2017-11-13T05:15:31.609Z,63.78
2017-11-13T05:16:03.260Z,63.76
2017-11-13T05:16:34.906Z,63.72
2017-11-13T05:17:06.550Z,63.86
2017-11-13T05:17:38.202Z,64.04
2017-11-13T05:18:10.126Z,63.81
2017-11-13T05:18:41.778Z,63.63
2017-11-13T05:19:13.434Z,63.69
2017-11-13T05:19:45.090Z,63.69
2017-11-13T05:20:16.939Z,63.68
2017-11-13T05:20:48.651Z,63.71
2017-11-13T05:21:20.294Z,63.74
2017-11-13T05:21:51.938Z,63.75
2017-11-13T05:22:23.582Z,63.78
2017-11-13T05:22:55.244Z,63.77
2017-11-13T05:23:26.895Z,63.70
2017-11-13T05:23:58.546Z,63.67
2017-11-13T05:24:30.211Z,63.67
2017-11-13T05:25:02.050Z,63.71
2017-11-13T05:25:33.735Z,63.62
2017-11-13T05:26:05.436Z,63.63
2017-11-13T05:26:37.087Z,63.72
2017-11-13T05:27:08.961Z,63.74
2017-11-13T05:27:40.611Z,63.73
2017-11-13T05:28:12.260Z,63.76
2017-11-13T05:28:43.907Z,63.72
2017-11-13T05:29:15.568Z,63.73
2017-11-13T05:29:47.228Z,63.78
2017-11-13T05:30:18.874Z,63.75
2017-11-13T05:30:50.760Z,63.83
2017-11-13T05:31:22.451Z,63.86
2017-11-13T05:31:54.099Z,63.94
2017-11-13T05:32:25.746Z,64.01
2017-11-13T05:32:57.403Z,63.91
2017-11-13T05:33:29.277Z,63.93
2017-11-13T05:34:00.927Z,63.89
2017-11-13T05:34:32.579Z,63.90
2017-11-13T05:35:04.227Z,64.00
2017-11-13T05:35:35.871Z,63.95
2017-11-13T05:36:07.519Z,64.00
2017-11-13T05:36:39.170Z,64.00
2017-11-13T05:37:10.823Z,63.94
2017-11-13T05:37:42.474Z,63.93
2017-11-13T05:38:14.363Z,64.03
2017-11-13T05:38:46.011Z,64.10
2017-11-13T05:39:17.662Z,64.16
2017-11-13T05:39:49.346Z,64.14
2017-11-13T05:40:21.237Z,64.29
2017-11-13T05:40:52.886Z,64.31
2017-11-13T05:41:24.578Z,64.25
2017-11-13T05:41:56.222Z,64.68
2017-11-13T05:42:28.111Z,64.52
2017-11-13T05:42:59.762Z,64.76
2017-11-13T05:43:31.418Z,64.49
2017-11-13T05:44:03.072Z,64.55
2017-11-13T05:44:34.715Z,64.62
2017-11-13T05:45:06.367Z,64.92
2017-11-13T05:45:38.248Z,64.78
2017-11-13T05:46:09.950Z,64.72
2017-11-13T05:46:41.598Z,64.74
2017-11-13T05:47:13.251Z,64.78
2017-11-13T05:47:44.902Z,64.86
2017-11-13T05:48:16.559Z,64.80
2017-11-13T05:48:48.405Z,64.82
2017-11-13T05:49:20.071Z,64.81
2017-11-13T05:49:51.723Z,64.81
2017-11-13T05:50:23.390Z,65.00
2017-11-13T05:50:55.042Z,64.87
2017-11-13T05:51:26.946Z,64.89
2017-11-13T05:51:58.595Z,64.73
2017-11-13T05:52:30.294Z,64.89
2017-11-13T05:53:02.179Z,64.79
2017-11-13T05:53:33.834Z,65.06
2017-11-13T05:54:05.495Z,65.27
2017-11-13T05:54:37.148Z,65.31
2017-11-13T05:55:08.806Z,65.73
2017-11-13T05:55:40.460Z,65.50
2017-11-13T05:56:12.312Z,65.67
2017-11-13T05:56:44.255Z,65.59
2017-11-13T05:57:16.163Z,65.57
2017-11-13T05:57:48.182Z,65.53
2017-11-13T05:58:19.871Z,65.56
2017-11-13T05:58:51.522Z,65.53
2017-11-13T05:59:23.417Z,65.79
2017-11-13T05:59:55.067Z,65.73
2017-11-13T06:00:26.714Z,65.60
2017-11-13T06:00:58.366Z,65.63
2017-11-13T06:01:30.018Z,65.69
2017-11-13T06:02:01.678Z,65.57
2017-11-13T06:02:33.336Z,65.61
2017-11-13T06:03:05.026Z,65.50
2017-11-13T06:03:36.678Z,65.56
2017-11-13T06:04:08.330Z,65.44
2017-11-13T06:04:40.142Z,65.51
2017-11-13T06:05:12.092Z,65.55
2017-11-13T06:05:43.940Z,65.53
2017-11-13T06:06:15.590Z,65.48
2017-11-13T06:06:47.279Z,65.44
2017-11-13T06:07:18.930Z,65.44
2017-11-13T06:07:50.582Z,65.37
2017-11-13T06:08:22.253Z,65.25
2017-11-13T06:08:53.899Z,65.36
2017-11-13T06:09:25.554Z,65.45
2017-11-13T06:09:57.245Z,65.30
2017-11-13T06:10:29.095Z,65.20
2017-11-13T06:11:00.767Z,65.16
2017-11-13T06:11:32.719Z,65.18
2017-11-13T06:12:04.378Z,65.17
2017-11-13T06:12:36.028Z,65.20
2017-11-13T06:13:07.680Z,65.17
2017-11-13T06:13:39.330Z,65.33
2017-11-13T06:14:10.983Z,65.30
2017-11-13T06:14:42.639Z,65.12
2017-11-13T06:15:14.326Z,64.96
2017-11-13T06:15:45.979Z,64.61
2017-11-13T06:16:17.627Z,64.04
2017-11-13T06:16:49.278Z,64.04
2017-11-13T06:17:20.926Z,64.13
2017-11-13T06:17:52.578Z,64.14
2017-11-13T06:18:24.231Z,64.28
2017-11-13T06:18:56.009Z,64.40
2017-11-13T06:19:27.659Z,64.67
2017-11-13T06:19:59.307Z,59.24
2017-11-13T06:20:30.951Z,50.60
2017-11-13T06:21:02.595Z,48.33
2017-11-13T06:21:34.242Z,44.97
2017-11-13T06:22:05.890Z,45.47
2017-11-13T06:22:37.538Z,46.33
2017-11-13T06:23:09.187Z,49.03
2017-11-13T06:23:40.838Z,50.67
2017-11-13T06:24:12.493Z,53.91
2017-11-13T06:24:44.381Z,54.23
2017-11-13T06:25:16.039Z,53.83
2017-11-13T06:25:47.682Z,53.82
2017-11-13T06:26:19.326Z,53.68
2017-11-13T06:26:50.983Z,54.25
2017-11-13T06:27:22.645Z,53.55
2017-11-13T06:27:54.490Z,53.82
2017-11-13T06:28:26.152Z,53.93
2017-11-13T06:28:57.850Z,54.11
2017-11-13T06:29:29.493Z,54.36
2017-11-13T06:30:01.134Z,54.44
2017-11-13T06:30:32.779Z,54.72
2017-11-13T06:31:04.439Z,54.68
2017-11-13T06:31:36.090Z,54.90
2017-11-13T06:32:07.975Z,54.64
2017-11-13T06:32:39.929Z,54.95
2017-11-13T06:33:11.583Z,55.05
2017-11-13T06:33:43.226Z,54.67
2017-11-13T06:34:14.914Z,54.78
2017-11-13T06:34:46.802Z,54.47
2017-11-13T06:35:18.457Z,55.08
2017-11-13T06:35:50.613Z,54.98
2017-11-13T06:36:22.263Z,54.67
2017-11-13T06:36:53.986Z,54.72
2017-11-13T06:37:25.634Z,54.78
2017-11-13T06:37:57.282Z,54.68
2017-11-13T06:38:28.926Z,54.78
2017-11-13T06:39:00.579Z,54.56
2017-11-13T06:39:32.221Z,54.69
2017-11-13T06:40:03.866Z,54.66
2017-11-13T06:40:35.510Z,54.62
2017-11-13T06:41:07.154Z,54.70
2017-11-13T06:41:38.803Z,54.72
2017-11-13T06:42:10.716Z,54.64
2017-11-13T06:42:42.370Z,54.89
2017-11-13T06:43:14.014Z,54.86
2017-11-13T06:43:45.664Z,54.99
2017-11-13T06:44:17.326Z,55.15
2017-11-13T06:44:48.974Z,55.11
2017-11-13T06:45:20.766Z,55.07
2017-11-13T06:45:52.418Z,55.16
2017-11-13T06:46:24.066Z,55.21
2017-11-13T06:46:55.720Z,55.27
2017-11-13T06:47:27.438Z,55.35
2017-11-13T06:47:59.090Z,55.42
2017-11-13T06:48:30.737Z,55.42